sensor_id;sensor_type;location;lat;lon;timestamp;temperature;humidity
60027;DHT22;45891;53.006;6.512;2022-09-17T00:01:01;9.70;99.90
60027;DHT22;45891;53.006;6.512;2022-09-17T00:03:28;9.70;99.90
60027;DHT22;45891;53.006;6.512;2022-09-17T00:06:03;9.70;99.90
60027;DHT22;45891;53.006;6.512;2022-09-17T00:08:30;9.70;99.90
60027;DHT22;45891;53.006;6.512;2022-09-17T00:10:56;9.60;99.90
60027;DHT22;45891;53.006;6.512;2022-09-17T00:13:23;9.70;99.90
60027;DHT22;45891;53.006;6.512;2022-09-17T00:15:49;9.60;99.90
60027;DHT22;45891;53.006;6.512;2022-09-17T00:18:17;9.60;99.90
60027;DHT22;45891;53.006;6.512;2022-09-17T00:20:45;9.60;99.90
60027;DHT22;45891;53.006;6.512;2022-09-17T00:23:12;9.70;99.90
60027;DHT22;45891;53.006;6.512;2022-09-17T00:25:40;9.70;99.90
60027;DHT22;45891;53.006;6.512;2022-09-17T00:28:07;9.80;99.90
60027;DHT22;45891;53.006;6.512;2022-09-17T00:30:33;10.00;99.90
60027;DHT22;45891;53.006;6.512;2022-09-17T00:33:00;10.10;99.90
60027;DHT22;45891;53.006;6.512;2022-09-17T00:35:26;10.10;99.90
60027;DHT22;45891;53.006;6.512;2022-09-17T00:37:53;10.00;99.90
60027;DHT22;45891;53.006;6.512;2022-09-17T00:40:20;10.00;99.90
60027;DHT22;45891;53.006;6.512;2022-09-17T00:42:46;9.90;99.90
60027;DHT22;45891;53.006;6.512;2022-09-17T00:45:13;9.90;99.90
60027;DHT22;45891;53.006;6.512;2022-09-17T00:47:46;9.90;99.90
60027;DHT22;45891;53.006;6.512;2022-09-17T00:50:36;9.90;99.90
60027;DHT22;45891;53.006;6.512;2022-09-17T00:53:10;9.90;99.90
60027;DHT22;45891;53.006;6.512;2022-09-17T00:55:42;9.90;99.90
60027;DHT22;45891;53.006;6.512;2022-09-17T00:58:11;9.90;99.90
60027;DHT22;45891;53.006;6.512;2022-09-17T01:00:39;9.80;99.90
60027;DHT22;45891;53.006;6.512;2022-09-17T01:03:06;9.90;99.90
60027;DHT22;45891;53.006;6.512;2022-09-17T01:05:43;9.80;99.90
60027;DHT22;45891;53.006;6.512;2022-09-17T01:11:14;9.70;99.90
60027;DHT22;45891;53.006;6.512;2022-09-17T01:14:51;9.70;99.90
60027;DHT22;45891;53.006;6.512;2022-09-17T01:22:12;9.50;99.90
60027;DHT22;45891;53.006;6.512;2022-09-17T01:33:16;9.40;99.90
60027;DHT22;45891;53.006;6.512;2022-09-17T01:35:48;9.40;99.90
60027;DHT22;45891;53.006;6.512;2022-09-17T01:38:28;9.40;99.90
60027;DHT22;45891;53.006;6.512;2022-09-17T01:41:09;9.50;99.90
60027;DHT22;45891;53.006;6.512;2022-09-17T01:43:51;9.50;99.90
60027;DHT22;45891;53.006;6.512;2022-09-17T01:46:32;9.50;99.90
60027;DHT22;45891;53.006;6.512;2022-09-17T01:49:01;9.50;99.90
60027;DHT22;45891;53.006;6.512;2022-09-17T01:51:38;9.40;99.90
60027;DHT22;45891;53.006;6.512;2022-09-17T01:54:46;9.40;99.90
60027;DHT22;45891;53.006;6.512;2022-09-17T01:57:31;9.40;99.90
60027;DHT22;45891;53.006;6.512;2022-09-17T02:00:04;9.40;99.90
60027;DHT22;45891;53.006;6.512;2022-09-17T02:02:32;9.30;99.90
60027;DHT22;45891;53.006;6.512;2022-09-17T02:07:35;9.30;99.90
60027;DHT22;45891;53.006;6.512;2022-09-17T02:10:19;9.30;99.90
60027;DHT22;45891;53.006;6.512;2022-09-17T02:12:54;9.30;99.90
60027;DHT22;45891;53.006;6.512;2022-09-17T02:15:26;9.30;99.90
60027;DHT22;45891;53.006;6.512;2022-09-17T02:18:14;9.40;99.90
60027;DHT22;45891;53.006;6.512;2022-09-17T02:20:47;9.40;99.90
60027;DHT22;45891;53.006;6.512;2022-09-17T02:23:23;9.40;99.90
60027;DHT22;45891;53.006;6.512;2022-09-17T02:25:57;9.50;99.90
60027;DHT22;45891;53.006;6.512;2022-09-17T02:28:41;9.50;99.90
60027;DHT22;45891;53.006;6.512;2022-09-17T02:31:09;9.50;99.90
60027;DHT22;45891;53.006;6.512;2022-09-17T02:33:37;9.50;99.90
60027;DHT22;45891;53.006;6.512;2022-09-17T02:36:04;9.60;99.90
60027;DHT22;45891;53.006;6.512;2022-09-17T02:38:31;9.60;99.90
60027;DHT22;45891;53.006;6.512;2022-09-17T02:41:14;9.70;99.90
60027;DHT22;45891;53.006;6.512;2022-09-17T02:44:05;10.00;99.90
60027;DHT22;45891;53.006;6.512;2022-09-17T02:58:51;10.00;99.90
60027;DHT22;45891;53.006;6.512;2022-09-17T03:01:50;10.00;99.90
60027;DHT22;45891;53.006;6.512;2022-09-17T03:04:15;9.90;99.90
60027;DHT22;45891;53.006;6.512;2022-09-17T03:06:45;9.80;99.90
60027;DHT22;45891;53.006;6.512;2022-09-17T03:09:13;9.70;99.90
60027;DHT22;45891;53.006;6.512;2022-09-17T03:11:40;9.60;99.90
60027;DHT22;45891;53.006;6.512;2022-09-17T03:14:07;9.60;99.90
60027;DHT22;45891;53.006;6.512;2022-09-17T03:16:33;9.60;99.90
60027;DHT22;45891;53.006;6.512;2022-09-17T03:18:59;9.60;99.90
60027;DHT22;45891;53.006;6.512;2022-09-17T03:21:25;9.60;99.90
60027;DHT22;45891;53.006;6.512;2022-09-17T03:23:51;9.60;99.90
60027;DHT22;45891;53.006;6.512;2022-09-17T03:26:18;9.60;99.90
60027;DHT22;45891;53.006;6.512;2022-09-17T03:28:44;9.70;99.90
60027;DHT22;45891;53.006;6.512;2022-09-17T03:31:10;9.80;99.90
60027;DHT22;45891;53.006;6.512;2022-09-17T03:33:36;9.80;99.90
60027;DHT22;45891;53.006;6.512;2022-09-17T03:36:02;9.80;99.90
60027;DHT22;45891;53.006;6.512;2022-09-17T03:38:28;9.80;99.90
60027;DHT22;45891;53.006;6.512;2022-09-17T03:41:02;9.80;99.90
60027;DHT22;45891;53.006;6.512;2022-09-17T03:43:29;9.80;99.90
60027;DHT22;45891;53.006;6.512;2022-09-17T03:45:55;9.80;99.90
60027;DHT22;45891;53.006;6.512;2022-09-17T03:48:21;9.70;99.90
60027;DHT22;45891;53.006;6.512;2022-09-17T03:50:47;9.70;99.90
60027;DHT22;45891;53.006;6.512;2022-09-17T03:53:15;9.70;99.90
60027;DHT22;45891;53.006;6.512;2022-09-17T03:55:41;9.80;99.90
60027;DHT22;45891;53.006;6.512;2022-09-17T03:58:07;9.80;99.90
60027;DHT22;45891;53.006;6.512;2022-09-17T04:00:34;9.80;99.90
60027;DHT22;45891;53.006;6.512;2022-09-17T04:03:05;9.70;99.90
60027;DHT22;45891;53.006;6.512;2022-09-17T04:05:31;9.70;99.90
60027;DHT22;45891;53.006;6.512;2022-09-17T04:07:58;9.60;99.90
60027;DHT22;45891;53.006;6.512;2022-09-17T04:10:24;9.60;99.90
60027;DHT22;45891;53.006;6.512;2022-09-17T04:12:50;9.60;99.90
60027;DHT22;45891;53.006;6.512;2022-09-17T04:15:16;9.60;99.90
60027;DHT22;45891;53.006;6.512;2022-09-17T04:17:42;9.60;99.90
60027;DHT22;45891;53.006;6.512;2022-09-17T04:20:09;9.50;99.90
60027;DHT22;45891;53.006;6.512;2022-09-17T04:22:35;9.50;99.90
60027;DHT22;45891;53.006;6.512;2022-09-17T04:25:01;9.50;99.90
60027;DHT22;45891;53.006;6.512;2022-09-17T04:27:27;9.50;99.90
60027;DHT22;45891;53.006;6.512;2022-09-17T04:29:53;9.50;99.90
60027;DHT22;45891;53.006;6.512;2022-09-17T04:32:19;9.60;99.90
60027;DHT22;45891;53.006;6.512;2022-09-17T04:34:46;9.60;99.90
60027;DHT22;45891;53.006;6.512;2022-09-17T04:37:12;9.60;99.90
60027;DHT22;45891;53.006;6.512;2022-09-17T04:39:38;9.70;99.90
60027;DHT22;45891;53.006;6.512;2022-09-17T04:42:04;9.70;99.90
60027;DHT22;45891;53.006;6.512;2022-09-17T04:44:30;9.70;99.90
60027;DHT22;45891;53.006;6.512;2022-09-17T04:46:56;9.70;99.90
60027;DHT22;45891;53.006;6.512;2022-09-17T04:49:22;9.60;99.90
60027;DHT22;45891;53.006;6.512;2022-09-17T04:51:48;9.60;99.90
60027;DHT22;45891;53.006;6.512;2022-09-17T04:54:15;9.60;99.90
60027;DHT22;45891;53.006;6.512;2022-09-17T04:56:41;9.50;99.90
60027;DHT22;45891;53.006;6.512;2022-09-17T04:59:07;9.60;99.90
60027;DHT22;45891;53.006;6.512;2022-09-17T05:01:33;9.50;99.90
60027;DHT22;45891;53.006;6.512;2022-09-17T05:04:00;9.50;99.90
60027;DHT22;45891;53.006;6.512;2022-09-17T05:06:26;9.60;99.90
60027;DHT22;45891;53.006;6.512;2022-09-17T05:08:52;9.60;99.90
60027;DHT22;45891;53.006;6.512;2022-09-17T05:11:18;9.50;99.90
60027;DHT22;45891;53.006;6.512;2022-09-17T05:13:44;9.50;99.90
60027;DHT22;45891;53.006;6.512;2022-09-17T05:16:10;9.50;99.90
60027;DHT22;45891;53.006;6.512;2022-09-17T05:18:36;9.50;99.90
60027;DHT22;45891;53.006;6.512;2022-09-17T05:21:03;9.50;99.90
60027;DHT22;45891;53.006;6.512;2022-09-17T05:23:29;9.50;99.90
60027;DHT22;45891;53.006;6.512;2022-09-17T05:25:59;9.50;99.90
60027;DHT22;45891;53.006;6.512;2022-09-17T05:28:26;9.50;99.90
60027;DHT22;45891;53.006;6.512;2022-09-17T05:30:52;9.50;99.90
60027;DHT22;45891;53.006;6.512;2022-09-17T05:33:18;9.60;99.90
60027;DHT22;45891;53.006;6.512;2022-09-17T05:35:45;9.70;99.90
60027;DHT22;45891;53.006;6.512;2022-09-17T05:38:11;9.80;99.90
60027;DHT22;45891;53.006;6.512;2022-09-17T05:40:38;9.80;99.90
60027;DHT22;45891;53.006;6.512;2022-09-17T05:43:05;9.90;99.90
60027;DHT22;45891;53.006;6.512;2022-09-17T05:45:33;10.00;99.90
60027;DHT22;45891;53.006;6.512;2022-09-17T05:48:00;10.10;99.90
60027;DHT22;45891;53.006;6.512;2022-09-17T05:50:27;10.10;99.90
60027;DHT22;45891;53.006;6.512;2022-09-17T05:52:54;10.20;99.90
60027;DHT22;45891;53.006;6.512;2022-09-17T05:55:21;10.20;99.90
60027;DHT22;45891;53.006;6.512;2022-09-17T05:57:49;10.20;99.90
60027;DHT22;45891;53.006;6.512;2022-09-17T06:00:16;10.10;99.90
60027;DHT22;45891;53.006;6.512;2022-09-17T06:02:42;10.10;99.90
60027;DHT22;45891;53.006;6.512;2022-09-17T06:05:09;10.10;99.90
60027;DHT22;45891;53.006;6.512;2022-09-17T06:07:36;10.10;99.90
60027;DHT22;45891;53.006;6.512;2022-09-17T06:10:04;10.00;99.90
60027;DHT22;45891;53.006;6.512;2022-09-17T06:12:30;9.90;99.90
60027;DHT22;45891;53.006;6.512;2022-09-17T06:14:57;9.90;99.90
60027;DHT22;45891;53.006;6.512;2022-09-17T06:17:23;9.80;99.90
60027;DHT22;45891;53.006;6.512;2022-09-17T06:19:49;9.80;99.90
60027;DHT22;45891;53.006;6.512;2022-09-17T06:22:18;9.70;99.90
60027;DHT22;45891;53.006;6.512;2022-09-17T06:24:45;9.70;99.90
60027;DHT22;45891;53.006;6.512;2022-09-17T06:27:11;9.70;99.90
60027;DHT22;45891;53.006;6.512;2022-09-17T06:29:37;9.80;99.90
60027;DHT22;45891;53.006;6.512;2022-09-17T06:32:03;9.80;99.90
60027;DHT22;45891;53.006;6.512;2022-09-17T06:34:29;9.90;99.90
60027;DHT22;45891;53.006;6.512;2022-09-17T06:36:55;9.80;99.90
60027;DHT22;45891;53.006;6.512;2022-09-17T06:39:21;9.80;99.90
60027;DHT22;45891;53.006;6.512;2022-09-17T06:41:49;9.90;99.90
60027;DHT22;45891;53.006;6.512;2022-09-17T06:44:15;9.90;99.90
60027;DHT22;45891;53.006;6.512;2022-09-17T06:46:41;9.90;99.90
60027;DHT22;45891;53.006;6.512;2022-09-17T06:49:09;10.20;99.90
60027;DHT22;45891;53.006;6.512;2022-09-17T06:51:36;10.70;99.90
60027;DHT22;45891;53.006;6.512;2022-09-17T06:54:02;10.80;99.90
60027;DHT22;45891;53.006;6.512;2022-09-17T06:56:28;10.70;99.90
60027;DHT22;45891;53.006;6.512;2022-09-17T06:58:54;11.10;99.90
60027;DHT22;45891;53.006;6.512;2022-09-17T07:01:21;11.30;99.90
60027;DHT22;45891;53.006;6.512;2022-09-17T07:03:47;11.20;99.90
60027;DHT22;45891;53.006;6.512;2022-09-17T07:06:14;11.10;99.90
60027;DHT22;45891;53.006;6.512;2022-09-17T07:08:40;10.90;99.90
60027;DHT22;45891;53.006;6.512;2022-09-17T07:11:06;10.80;99.90
60027;DHT22;45891;53.006;6.512;2022-09-17T07:13:33;10.70;99.90
60027;DHT22;45891;53.006;6.512;2022-09-17T07:16:00;10.70;99.90
60027;DHT22;45891;53.006;6.512;2022-09-17T07:18:27;10.80;99.90
60027;DHT22;45891;53.006;6.512;2022-09-17T07:20:55;11.00;99.90
60027;DHT22;45891;53.006;6.512;2022-09-17T07:23:23;11.20;99.90
60027;DHT22;45891;53.006;6.512;2022-09-17T07:26:07;11.20;99.90
60027;DHT22;45891;53.006;6.512;2022-09-17T07:28:33;11.10;99.90
60027;DHT22;45891;53.006;6.512;2022-09-17T07:31:02;11.00;99.90
60027;DHT22;45891;53.006;6.512;2022-09-17T07:33:29;11.20;99.90
60027;DHT22;45891;53.006;6.512;2022-09-17T07:35:57;11.70;99.90
60027;DHT22;45891;53.006;6.512;2022-09-17T07:38:24;12.40;99.90
60027;DHT22;45891;53.006;6.512;2022-09-17T07:41:04;12.90;99.90
60027;DHT22;45891;53.006;6.512;2022-09-17T07:43:33;13.40;99.90
60027;DHT22;45891;53.006;6.512;2022-09-17T07:46:01;13.70;99.90
60027;DHT22;45891;53.006;6.512;2022-09-17T07:48:28;13.70;99.90
60027;DHT22;45891;53.006;6.512;2022-09-17T07:50:55;13.30;99.90
60027;DHT22;45891;53.006;6.512;2022-09-17T07:53:21;13.40;99.90
60027;DHT22;45891;53.006;6.512;2022-09-17T07:55:51;13.10;99.90
60027;DHT22;45891;53.006;6.512;2022-09-17T07:58:18;12.70;99.90
60027;DHT22;45891;53.006;6.512;2022-09-17T08:00:44;12.30;99.90
60027;DHT22;45891;53.006;6.512;2022-09-17T08:03:11;12.80;99.90
60027;DHT22;45891;53.006;6.512;2022-09-17T08:05:37;13.30;99.90
60027;DHT22;45891;53.006;6.512;2022-09-17T08:08:03;13.50;99.90
60027;DHT22;45891;53.006;6.512;2022-09-17T08:10:29;13.70;99.90
60027;DHT22;45891;53.006;6.512;2022-09-17T08:12:57;14.10;99.90
60027;DHT22;45891;53.006;6.512;2022-09-17T08:15:24;14.30;99.90
60027;DHT22;45891;53.006;6.512;2022-09-17T08:17:51;13.70;99.90
60027;DHT22;45891;53.006;6.512;2022-09-17T08:20:17;13.30;99.90
60027;DHT22;45891;53.006;6.512;2022-09-17T08:22:44;13.00;99.90
60027;DHT22;45891;53.006;6.512;2022-09-17T08:25:10;12.60;99.90
60027;DHT22;45891;53.006;6.512;2022-09-17T08:27:37;12.40;99.90
60027;DHT22;45891;53.006;6.512;2022-09-17T08:30:06;12.00;99.90
60027;DHT22;45891;53.006;6.512;2022-09-17T08:32:33;11.80;99.90
60027;DHT22;45891;53.006;6.512;2022-09-17T08:34:59;11.70;99.90
60027;DHT22;45891;53.006;6.512;2022-09-17T08:37:27;11.70;99.90
60027;DHT22;45891;53.006;6.512;2022-09-17T08:39:54;11.60;99.90
60027;DHT22;45891;53.006;6.512;2022-09-17T08:42:29;11.70;99.90
60027;DHT22;45891;53.006;6.512;2022-09-17T08:44:58;12.60;99.90
60027;DHT22;45891;53.006;6.512;2022-09-17T08:47:27;13.40;99.90
60027;DHT22;45891;53.006;6.512;2022-09-17T08:49:59;13.50;99.90
60027;DHT22;45891;53.006;6.512;2022-09-17T08:55:38;14.00;99.90
60027;DHT22;45891;53.006;6.512;2022-09-17T09:01:30;14.90;99.90
60027;DHT22;45891;53.006;6.512;2022-09-17T09:04:07;14.80;99.90
60027;DHT22;45891;53.006;6.512;2022-09-17T09:06:54;15.40;99.90
60027;DHT22;45891;53.006;6.512;2022-09-17T09:09:25;15.50;99.90
60027;DHT22;45891;53.006;6.512;2022-09-17T09:12:01;14.90;99.90
60027;DHT22;45891;53.006;6.512;2022-09-17T09:14:36;14.20;99.90
60027;DHT22;45891;53.006;6.512;2022-09-17T09:17:06;13.60;99.90
60027;DHT22;45891;53.006;6.512;2022-09-17T09:19:43;13.40;99.90
60027;DHT22;45891;53.006;6.512;2022-09-17T09:22:39;13.70;99.90
60027;DHT22;45891;53.006;6.512;2022-09-17T09:25:20;14.30;99.90
60027;DHT22;45891;53.006;6.512;2022-09-17T09:28:29;14.90;99.90
60027;DHT22;45891;53.006;6.512;2022-09-17T09:33:49;15.30;99.90
60027;DHT22;45891;53.006;6.512;2022-09-17T09:36:16;15.30;99.90
60027;DHT22;45891;53.006;6.512;2022-09-17T09:38:51;15.70;99.90
60027;DHT22;45891;53.006;6.512;2022-09-17T09:41:35;16.00;99.90
60027;DHT22;45891;53.006;6.512;2022-09-17T09:44:10;16.40;99.90
60027;DHT22;45891;53.006;6.512;2022-09-17T09:49:52;16.30;99.90
60027;DHT22;45891;53.006;6.512;2022-09-17T09:58:40;14.10;99.90
60027;DHT22;45891;53.006;6.512;2022-09-17T10:03:39;14.90;99.90
60027;DHT22;45891;53.006;6.512;2022-09-17T10:06:09;15.90;99.90
60027;DHT22;45891;53.006;6.512;2022-09-17T10:08:39;16.70;99.90
60027;DHT22;45891;53.006;6.512;2022-09-17T10:13:37;17.10;99.90
60027;DHT22;45891;53.006;6.512;2022-09-17T10:18:48;16.20;99.90
60027;DHT22;45891;53.006;6.512;2022-09-17T10:21:33;15.60;99.90
60027;DHT22;45891;53.006;6.512;2022-09-17T10:24:01;15.00;99.90
60027;DHT22;45891;53.006;6.512;2022-09-17T10:26:30;14.50;99.90
60027;DHT22;45891;53.006;6.512;2022-09-17T10:28:58;14.30;99.90
60027;DHT22;45891;53.006;6.512;2022-09-17T10:31:25;14.80;99.90
60027;DHT22;45891;53.006;6.512;2022-09-17T10:33:58;15.20;99.90
60027;DHT22;45891;53.006;6.512;2022-09-17T10:36:44;15.80;99.90
60027;DHT22;45891;53.006;6.512;2022-09-17T10:39:35;16.20;99.90
60027;DHT22;45891;53.006;6.512;2022-09-17T10:44:33;17.00;99.90
60027;DHT22;45891;53.006;6.512;2022-09-17T10:47:02;17.10;99.90
60027;DHT22;45891;53.006;6.512;2022-09-17T10:49:42;17.60;99.90
60027;DHT22;45891;53.006;6.512;2022-09-17T11:08:42;15.70;99.90
60027;DHT22;45891;53.006;6.512;2022-09-17T11:19:26;14.20;99.90
60027;DHT22;45891;53.006;6.512;2022-09-17T11:22:26;14.00;99.90
60027;DHT22;45891;53.006;6.512;2022-09-17T11:30:22;13.40;99.90
60027;DHT22;45891;53.006;6.512;2022-09-17T11:33:01;13.50;99.90
60027;DHT22;45891;53.006;6.512;2022-09-17T11:35:34;13.80;99.90
60027;DHT22;45891;53.006;6.512;2022-09-17T11:38:23;14.40;99.90
60027;DHT22;45891;53.006;6.512;2022-09-17T11:43:33;15.50;99.90
60027;DHT22;45891;53.006;6.512;2022-09-17T11:46:06;15.10;99.90
60027;DHT22;45891;53.006;6.512;2022-09-17T11:51:21;14.10;99.90
60027;DHT22;45891;53.006;6.512;2022-09-17T11:53:56;13.60;99.90
60027;DHT22;45891;53.006;6.512;2022-09-17T11:56:40;13.60;99.90
60027;DHT22;45891;53.006;6.512;2022-09-17T12:01:54;14.70;99.90
60027;DHT22;45891;53.006;6.512;2022-09-17T12:04:41;14.80;99.90
60027;DHT22;45891;53.006;6.512;2022-09-17T12:07:32;14.30;99.90
60027;DHT22;45891;53.006;6.512;2022-09-17T12:15:51;14.10;99.90
60027;DHT22;45891;53.006;6.512;2022-09-17T12:20:57;15.40;99.90
60027;DHT22;45891;53.006;6.512;2022-09-17T12:23:37;15.90;99.90
60027;DHT22;45891;53.006;6.512;2022-09-17T12:26:33;16.70;99.90
60027;DHT22;45891;53.006;6.512;2022-09-17T12:35:00;18.10;99.90
60027;DHT22;45891;53.006;6.512;2022-09-17T12:40:25;18.50;99.90
60027;DHT22;45891;53.006;6.512;2022-09-17T12:48:29;15.60;99.60
60027;DHT22;45891;53.006;6.512;2022-09-17T12:59:49;17.80;98.30
60027;DHT22;45891;53.006;6.512;2022-09-17T13:02:32;17.80;97.00
60027;DHT22;45891;53.006;6.512;2022-09-17T13:05:09;18.60;97.20
60027;DHT22;45891;53.006;6.512;2022-09-17T13:10:46;18.40;95.00
60027;DHT22;45891;53.006;6.512;2022-09-17T13:19:39;18.80;93.30
60027;DHT22;45891;53.006;6.512;2022-09-17T13:22:18;18.80;93.60
60027;DHT22;45891;53.006;6.512;2022-09-17T13:24:46;18.70;94.20
60027;DHT22;45891;53.006;6.512;2022-09-17T13:27:23;18.80;95.00
60027;DHT22;45891;53.006;6.512;2022-09-17T13:42:55;20.10;89.90
60027;DHT22;45891;53.006;6.512;2022-09-17T13:45:23;20.00;90.00
60027;DHT22;45891;53.006;6.512;2022-09-17T13:47:53;19.60;89.00
60027;DHT22;45891;53.006;6.512;2022-09-17T13:53:19;18.60;86.50
60027;DHT22;45891;53.006;6.512;2022-09-17T13:55:49;17.90;88.60
60027;DHT22;45891;53.006;6.512;2022-09-17T14:03:45;17.10;91.00
60027;DHT22;45891;53.006;6.512;2022-09-17T14:21:55;16.90;91.00
60027;DHT22;45891;53.006;6.512;2022-09-17T14:24:24;16.40;93.10
60027;DHT22;45891;53.006;6.512;2022-09-17T14:32:17;17.70;97.30
60027;DHT22;45891;53.006;6.512;2022-09-17T14:34:47;17.00;96.80
60027;DHT22;45891;53.006;6.512;2022-09-17T14:37:16;16.00;98.40
60027;DHT22;45891;53.006;6.512;2022-09-17T14:39:44;15.40;99.60
60027;DHT22;45891;53.006;6.512;2022-09-17T14:42:33;14.80;99.90
60027;DHT22;45891;53.006;6.512;2022-09-17T14:45:03;14.30;99.90
60027;DHT22;45891;53.006;6.512;2022-09-17T14:47:31;13.50;99.90
60027;DHT22;45891;53.006;6.512;2022-09-17T14:50:20;13.30;99.90
60027;DHT22;45891;53.006;6.512;2022-09-17T14:52:48;13.40;99.90
60027;DHT22;45891;53.006;6.512;2022-09-17T14:55:17;14.50;99.90
60027;DHT22;45891;53.006;6.512;2022-09-17T14:57:58;15.20;99.90
60027;DHT22;45891;53.006;6.512;2022-09-17T15:00:35;14.50;99.90
60027;DHT22;45891;53.006;6.512;2022-09-17T15:03:03;15.10;99.90
60027;DHT22;45891;53.006;6.512;2022-09-17T15:05:32;14.60;99.90
60027;DHT22;45891;53.006;6.512;2022-09-17T15:08:09;14.50;99.90
60027;DHT22;45891;53.006;6.512;2022-09-17T15:10:55;14.00;99.90
60027;DHT22;45891;53.006;6.512;2022-09-17T15:13:26;14.20;99.90
60027;DHT22;45891;53.006;6.512;2022-09-17T15:16:10;13.90;99.90
60027;DHT22;45891;53.006;6.512;2022-09-17T15:18:46;13.60;99.90
60027;DHT22;45891;53.006;6.512;2022-09-17T15:21:40;13.50;99.90
60027;DHT22;45891;53.006;6.512;2022-09-17T15:26:41;13.30;99.90
60027;DHT22;45891;53.006;6.512;2022-09-17T15:29:12;14.00;99.90
60027;DHT22;45891;53.006;6.512;2022-09-17T15:31:39;13.70;99.90
60027;DHT22;45891;53.006;6.512;2022-09-17T15:34:08;13.40;99.90
60027;DHT22;45891;53.006;6.512;2022-09-17T15:36:35;13.20;99.90
60027;DHT22;45891;53.006;6.512;2022-09-17T15:39:28;13.10;99.90
60027;DHT22;45891;53.006;6.512;2022-09-17T15:41:55;13.50;99.90
60027;DHT22;45891;53.006;6.512;2022-09-17T15:44:25;14.80;99.90
60027;DHT22;45891;53.006;6.512;2022-09-17T15:46:52;15.50;99.90
60027;DHT22;45891;53.006;6.512;2022-09-17T15:49:34;15.90;99.90
60027;DHT22;45891;53.006;6.512;2022-09-17T15:52:28;16.60;99.90
60027;DHT22;45891;53.006;6.512;2022-09-17T15:54:59;16.80;99.90
60027;DHT22;45891;53.006;6.512;2022-09-17T15:57:30;17.00;99.00
60027;DHT22;45891;53.006;6.512;2022-09-17T16:00:10;17.00;99.20
60027;DHT22;45891;53.006;6.512;2022-09-17T16:02:40;17.00;99.00
60027;DHT22;45891;53.006;6.512;2022-09-17T16:07:39;17.20;99.40
60027;DHT22;45891;53.006;6.512;2022-09-17T16:10:07;16.00;99.90
60027;DHT22;45891;53.006;6.512;2022-09-17T16:12:34;15.20;99.90
60027;DHT22;45891;53.006;6.512;2022-09-17T16:15:01;14.80;99.90
60027;DHT22;45891;53.006;6.512;2022-09-17T16:17:47;15.70;99.90
60027;DHT22;45891;53.006;6.512;2022-09-17T16:20:20;16.50;99.90
60027;DHT22;45891;53.006;6.512;2022-09-17T16:22:49;16.80;99.90
60027;DHT22;45891;53.006;6.512;2022-09-17T16:25:17;16.50;99.90
60027;DHT22;45891;53.006;6.512;2022-09-17T16:28:10;15.90;99.90
60027;DHT22;45891;53.006;6.512;2022-09-17T16:30:35;15.40;99.90
60027;DHT22;45891;53.006;6.512;2022-09-17T16:33:01;14.90;99.90
60027;DHT22;45891;53.006;6.512;2022-09-17T16:35:28;14.60;99.90
60027;DHT22;45891;53.006;6.512;2022-09-17T16:37:55;14.40;99.90
60027;DHT22;45891;53.006;6.512;2022-09-17T16:40:23;14.30;99.90
60027;DHT22;45891;53.006;6.512;2022-09-17T16:42:52;14.10;99.90
60027;DHT22;45891;53.006;6.512;2022-09-17T16:45:18;14.00;99.90
60027;DHT22;45891;53.006;6.512;2022-09-17T16:47:45;14.30;99.90
60027;DHT22;45891;53.006;6.512;2022-09-17T16:50:13;14.70;99.90
60027;DHT22;45891;53.006;6.512;2022-09-17T16:52:40;14.70;99.90
60027;DHT22;45891;53.006;6.512;2022-09-17T16:55:06;14.50;99.90
60027;DHT22;45891;53.006;6.512;2022-09-17T16:57:33;14.00;99.90
60027;DHT22;45891;53.006;6.512;2022-09-17T16:59:59;13.60;99.90
60027;DHT22;45891;53.006;6.512;2022-09-17T17:02:26;13.40;99.90
60027;DHT22;45891;53.006;6.512;2022-09-17T17:04:52;13.20;99.90
60027;DHT22;45891;53.006;6.512;2022-09-17T17:07:19;13.00;99.90
60027;DHT22;45891;53.006;6.512;2022-09-17T17:09:45;12.90;99.90
60027;DHT22;45891;53.006;6.512;2022-09-17T17:12:11;12.90;99.90
60027;DHT22;45891;53.006;6.512;2022-09-17T17:14:38;12.70;99.90
60027;DHT22;45891;53.006;6.512;2022-09-17T17:17:04;12.70;99.90
60027;DHT22;45891;53.006;6.512;2022-09-17T17:19:30;12.60;99.90
60027;DHT22;45891;53.006;6.512;2022-09-17T17:21:56;12.50;99.90
60027;DHT22;45891;53.006;6.512;2022-09-17T17:24:22;12.50;99.90
60027;DHT22;45891;53.006;6.512;2022-09-17T17:26:48;12.50;99.90
60027;DHT22;45891;53.006;6.512;2022-09-17T17:29:14;12.50;99.90
60027;DHT22;45891;53.006;6.512;2022-09-17T17:31:41;12.50;99.90
60027;DHT22;45891;53.006;6.512;2022-09-17T17:34:07;12.50;99.90
60027;DHT22;45891;53.006;6.512;2022-09-17T17:36:34;12.40;99.90
60027;DHT22;45891;53.006;6.512;2022-09-17T17:39:00;12.40;99.90
60027;DHT22;45891;53.006;6.512;2022-09-17T17:41:27;12.40;99.90
60027;DHT22;45891;53.006;6.512;2022-09-17T17:43:54;12.30;99.90
60027;DHT22;45891;53.006;6.512;2022-09-17T17:46:21;12.20;99.90
60027;DHT22;45891;53.006;6.512;2022-09-17T17:48:48;12.20;99.90
60027;DHT22;45891;53.006;6.512;2022-09-17T17:51:15;12.20;99.90
60027;DHT22;45891;53.006;6.512;2022-09-17T17:53:43;12.10;99.90
60027;DHT22;45891;53.006;6.512;2022-09-17T17:56:11;12.10;99.90
60027;DHT22;45891;53.006;6.512;2022-09-17T17:58:38;12.10;99.90
60027;DHT22;45891;53.006;6.512;2022-09-17T18:01:24;12.00;99.90
60027;DHT22;45891;53.006;6.512;2022-09-17T18:03:58;12.00;99.90
60027;DHT22;45891;53.006;6.512;2022-09-17T18:06:25;12.00;99.90
60027;DHT22;45891;53.006;6.512;2022-09-17T18:08:52;12.00;99.90
60027;DHT22;45891;53.006;6.512;2022-09-17T18:11:19;12.00;99.90
60027;DHT22;45891;53.006;6.512;2022-09-17T18:13:45;11.90;99.90
60027;DHT22;45891;53.006;6.512;2022-09-17T18:16:15;11.80;99.90
60027;DHT22;45891;53.006;6.512;2022-09-17T18:18:43;11.60;99.90
60027;DHT22;45891;53.006;6.512;2022-09-17T18:21:12;11.60;99.90
60027;DHT22;45891;53.006;6.512;2022-09-17T18:23:39;11.50;99.90
60027;DHT22;45891;53.006;6.512;2022-09-17T18:26:09;11.40;99.90
60027;DHT22;45891;53.006;6.512;2022-09-17T18:28:36;11.40;99.90
60027;DHT22;45891;53.006;6.512;2022-09-17T18:31:06;11.30;99.90
60027;DHT22;45891;53.006;6.512;2022-09-17T18:33:33;11.30;99.90
60027;DHT22;45891;53.006;6.512;2022-09-17T18:36:02;11.20;99.90
60027;DHT22;45891;53.006;6.512;2022-09-17T18:38:29;11.20;99.90
60027;DHT22;45891;53.006;6.512;2022-09-17T18:41:00;11.20;99.90
60027;DHT22;45891;53.006;6.512;2022-09-17T18:43:26;11.20;99.90
60027;DHT22;45891;53.006;6.512;2022-09-17T18:45:54;11.20;99.90
60027;DHT22;45891;53.006;6.512;2022-09-17T18:48:23;11.20;99.90
60027;DHT22;45891;53.006;6.512;2022-09-17T18:51:01;11.10;99.90
60027;DHT22;45891;53.006;6.512;2022-09-17T18:53:29;11.10;99.90
60027;DHT22;45891;53.006;6.512;2022-09-17T18:55:59;11.10;99.90
60027;DHT22;45891;53.006;6.512;2022-09-17T18:58:27;11.10;99.90
60027;DHT22;45891;53.006;6.512;2022-09-17T19:00:53;11.10;99.90
60027;DHT22;45891;53.006;6.512;2022-09-17T19:03:19;11.00;99.90